createdAt,value
2022-11-24T00:00:33.651Z,21.61
2022-11-24T00:03:00.854Z,21.61
2022-11-24T00:05:27.864Z,21.62
2022-11-24T00:07:54.936Z,21.61
2022-11-24T00:10:21.853Z,21.62
2022-11-24T00:12:48.709Z,21.61
2022-11-24T00:15:15.646Z,21.61
2022-11-24T00:17:42.466Z,21.61
2022-11-24T00:20:09.930Z,21.59
2022-11-24T00:22:36.724Z,21.60
2022-11-24T00:25:03.781Z,21.59
2022-11-24T00:27:30.613Z,21.59
2022-11-24T00:29:59.790Z,21.57
2022-11-24T00:32:29.883Z,21.56
2022-11-24T00:34:56.792Z,21.53
2022-11-24T00:37:23.607Z,21.52
2022-11-24T00:39:50.423Z,21.49
2022-11-24T00:42:17.414Z,21.48
2022-11-24T00:44:44.252Z,21.47
2022-11-24T00:47:11.146Z,21.45
2022-11-24T00:49:38.012Z,21.42
2022-11-24T00:52:05.020Z,21.40
2022-11-24T00:54:31.972Z,21.39
2022-11-24T00:56:59.006Z,21.35
2022-11-24T00:59:25.790Z,21.33
2022-11-24T01:01:52.645Z,21.32
2022-11-24T01:04:19.532Z,21.29
2022-11-24T01:06:46.353Z,21.26
2022-11-24T01:09:13.170Z,21.24
2022-11-24T01:11:43.157Z,21.23
2022-11-24T01:14:09.998Z,21.25
2022-11-24T01:16:39.084Z,21.19
2022-11-24T01:19:05.893Z,21.15
2022-11-24T01:21:32.688Z,21.10
2022-11-24T01:23:59.487Z,21.07
2022-11-24T01:26:26.804Z,21.01
2022-11-24T01:28:55.427Z,21.00
2022-11-24T01:31:22.468Z,21.00
2022-11-24T01:33:49.331Z,20.96
2022-11-24T01:36:16.188Z,20.94
2022-11-24T01:38:43.015Z,20.90
2022-11-24T01:41:12.253Z,20.90
2022-11-24T01:43:39.360Z,20.88
2022-11-24T01:46:15.959Z,20.86
2022-11-24T01:48:45.812Z,20.83
2022-11-24T01:51:15.044Z,20.80
2022-11-24T01:53:44.792Z,20.79
2022-11-24T01:56:13.193Z,20.77
2022-11-24T01:58:40.949Z,20.77
2022-11-24T02:01:08.814Z,20.74
2022-11-24T02:03:37.237Z,20.72
2022-11-24T02:06:07.905Z,20.74
2022-11-24T02:08:40.081Z,20.71
2022-11-24T02:11:07.068Z,20.69
2022-11-24T02:13:35.815Z,20.69
2022-11-24T02:16:03.444Z,20.69
2022-11-24T02:18:30.642Z,20.66
2022-11-24T02:20:57.629Z,20.66
2022-11-24T02:23:28.614Z,20.65
2022-11-24T02:25:55.749Z,20.61
2022-11-24T02:28:24.214Z,20.63
2022-11-24T02:30:51.569Z,20.61
2022-11-24T02:33:19.023Z,20.58
2022-11-24T02:35:45.847Z,20.56
2022-11-24T02:38:13.835Z,20.55
2022-11-24T02:40:43.307Z,20.53
2022-11-24T02:43:12.792Z,20.52
2022-11-24T02:45:39.710Z,20.49
2022-11-24T02:48:06.795Z,20.49
2022-11-24T02:50:33.739Z,20.46
2022-11-24T02:53:01.007Z,20.45
2022-11-24T02:55:27.851Z,20.42
2022-11-24T02:57:54.664Z,20.41
2022-11-24T03:00:22.207Z,20.41
2022-11-24T03:02:49.074Z,20.41
2022-11-24T03:05:16.056Z,20.40
2022-11-24T03:07:44.129Z,20.38
2022-11-24T03:10:11.161Z,20.35
2022-11-24T03:12:38.086Z,20.33
2022-11-24T03:15:06.266Z,20.29
2022-11-24T03:17:33.154Z,20.28
2022-11-24T03:20:04.857Z,20.25
2022-11-24T03:22:32.278Z,20.26
2022-11-24T03:24:59.530Z,20.25
2022-11-24T03:27:26.471Z,20.20
2022-11-24T03:29:53.368Z,20.20
2022-11-24T03:32:20.167Z,20.20
2022-11-24T03:34:47.525Z,20.16
2022-11-24T03:37:14.363Z,20.14
2022-11-24T03:39:41.162Z,20.11
2022-11-24T03:42:08.028Z,20.09
2022-11-24T03:44:35.145Z,20.07
2022-11-24T03:47:02.244Z,20.06
2022-11-24T03:49:29.121Z,20.03
2022-11-24T03:51:56.008Z,20.00
2022-11-24T03:54:22.811Z,19.99
2022-11-24T03:56:49.849Z,19.98
2022-11-24T03:59:17.336Z,19.94
2022-11-24T04:01:44.206Z,19.92
2022-11-24T04:04:11.865Z,19.90
2022-11-24T04:06:38.980Z,19.90
2022-11-24T04:09:06.124Z,19.86
2022-11-24T04:11:36.070Z,19.85
2022-11-24T04:14:02.856Z,19.84
2022-11-24T04:16:29.703Z,19.82
2022-11-24T04:18:56.833Z,19.82
2022-11-24T04:21:23.588Z,19.82
2022-11-24T04:23:50.378Z,19.76
2022-11-24T04:26:17.812Z,19.76
2022-11-24T04:28:44.727Z,19.74
2022-11-24T04:31:11.581Z,19.71
2022-11-24T04:33:38.415Z,19.72
2022-11-24T04:36:05.473Z,19.68
2022-11-24T04:39:23.942Z,19.67
2022-11-24T04:41:19.126Z,19.65
2022-11-24T04:43:48.772Z,19.62
2022-11-24T04:46:15.708Z,19.60
2022-11-24T04:48:42.740Z,19.59
2022-11-24T04:51:10.921Z,19.59
2022-11-24T04:53:37.769Z,19.57
2022-11-24T04:56:06.100Z,19.56
2022-11-24T04:58:33.306Z,19.54
2022-11-24T05:01:00.113Z,19.52
2022-11-24T05:03:26.940Z,19.51
2022-11-24T05:05:53.712Z,19.51
2022-11-24T05:08:20.484Z,19.49
2022-11-24T05:10:47.309Z,19.50
2022-11-24T05:13:14.253Z,19.47
2022-11-24T05:15:41.924Z,19.44
2022-11-24T05:18:11.173Z,19.45
2022-11-24T05:20:38.333Z,19.46
2022-11-24T05:23:06.197Z,19.48
2022-11-24T05:25:33.488Z,19.52
2022-11-24T05:28:01.582Z,19.57
2022-11-24T05:30:28.856Z,19.61
2022-11-24T05:32:55.878Z,19.65
2022-11-24T05:35:22.994Z,19.69
2022-11-24T05:37:49.973Z,19.72
2022-11-24T05:40:17.089Z,19.75
2022-11-24T05:42:47.606Z,19.78
2022-11-24T05:45:16.766Z,19.80
2022-11-24T05:47:43.569Z,19.83
2022-11-24T05:50:11.865Z,19.85
2022-11-24T05:52:38.649Z,19.90
2022-11-24T05:55:06.160Z,19.95
2022-11-24T05:57:33.382Z,19.98
2022-11-24T06:00:00.500Z,20.02
2022-11-24T06:02:27.384Z,20.06
2022-11-24T06:04:54.596Z,20.11
2022-11-24T06:07:21.413Z,20.15
2022-11-24T06:09:48.350Z,20.19
2022-11-24T06:12:15.185Z,20.24
2022-11-24T06:14:42.040Z,20.27
2022-11-24T06:17:10.163Z,20.33
2022-11-24T06:19:41.742Z,20.38
2022-11-24T06:22:09.035Z,20.43
2022-11-24T06:24:36.070Z,20.47
2022-11-24T06:27:03.173Z,20.52
2022-11-24T06:29:29.979Z,20.56
2022-11-24T06:31:56.946Z,20.60
2022-11-24T06:34:23.789Z,20.65
2022-11-24T06:36:50.609Z,20.70
2022-11-24T06:39:17.410Z,20.75
2022-11-24T06:41:44.243Z,20.80
2022-11-24T06:44:11.150Z,20.83
2022-11-24T06:46:37.964Z,20.88
2022-11-24T06:49:04.781Z,20.91
2022-11-24T06:51:31.666Z,20.96
2022-11-24T06:53:58.588Z,21.00
2022-11-24T06:56:25.533Z,21.04
2022-11-24T06:58:53.243Z,21.08
2022-11-24T07:01:22.614Z,21.11
2022-11-24T07:03:50.161Z,21.14
2022-11-24T07:06:17.605Z,21.18
2022-11-24T07:08:44.845Z,21.20
2022-11-24T07:11:12.872Z,21.23
2022-11-24T07:13:39.681Z,21.26
2022-11-24T07:16:09.652Z,21.28
2022-11-24T07:18:36.497Z,21.31
2022-11-24T07:21:04.958Z,21.32
2022-11-24T07:23:31.760Z,21.35
2022-11-24T07:26:05.261Z,21.37
2022-11-24T07:28:33.840Z,21.39
2022-11-24T07:31:05.222Z,21.40
2022-11-24T07:33:32.080Z,21.41
2022-11-24T07:36:00.132Z,21.44
2022-11-24T07:38:26.946Z,21.45
2022-11-24T07:40:53.801Z,21.53
2022-11-24T07:43:20.796Z,21.45
2022-11-24T07:45:50.725Z,21.40
2022-11-24T07:48:17.625Z,21.41
2022-11-24T07:50:44.548Z,21.41
2022-11-24T07:53:11.910Z,21.43
2022-11-24T07:55:38.903Z,21.45
2022-11-24T07:58:05.869Z,21.45
2022-11-24T08:00:32.693Z,21.46
2022-11-24T08:02:59.564Z,21.47
2022-11-24T08:05:26.441Z,21.48
2022-11-24T08:07:53.349Z,21.49
2022-11-24T08:10:20.341Z,21.49
2022-11-24T08:12:47.245Z,21.49
2022-11-24T08:15:14.262Z,21.49
2022-11-24T08:17:41.223Z,21.50
2022-11-24T08:20:09.161Z,21.53
2022-11-24T08:22:36.079Z,21.53
2022-11-24T08:25:03.084Z,21.50
2022-11-24T08:27:30.457Z,21.51
2022-11-24T08:29:57.502Z,21.48
2022-11-24T08:32:24.455Z,21.46
2022-11-24T08:34:52.218Z,21.43
2022-11-24T08:37:25.099Z,21.42
2022-11-24T08:39:52.838Z,21.41
2022-11-24T08:42:19.921Z,21.39
2022-11-24T08:44:46.936Z,21.36
2022-11-24T08:47:13.809Z,21.33
2022-11-24T08:49:41.370Z,21.34
2022-11-24T08:52:08.241Z,21.31
2022-11-24T08:54:35.779Z,21.30
2022-11-24T08:57:02.904Z,21.31
2022-11-24T08:59:29.843Z,21.26
2022-11-24T09:01:56.910Z,21.27
2022-11-24T09:04:24.090Z,21.24
2022-11-24T09:06:51.042Z,21.23
2022-11-24T09:09:18.454Z,21.20
2022-11-24T09:11:45.652Z,21.19
2022-11-24T09:14:12.589Z,21.16
2022-11-24T09:16:39.657Z,21.13
2022-11-24T09:19:08.501Z,21.13
2022-11-24T09:21:38.144Z,21.12
2022-11-24T09:24:06.365Z,21.12
2022-11-24T09:26:34.972Z,21.09
2022-11-24T09:29:02.668Z,21.11
2022-11-24T09:31:31.328Z,21.10
2022-11-24T09:33:58.429Z,21.07
2022-11-24T09:36:25.732Z,21.06
2022-11-24T09:38:52.983Z,21.04
2022-11-24T09:41:20.386Z,21.06
2022-11-24T09:43:50.437Z,21.04
2022-11-24T09:46:27.637Z,21.02
2022-11-24T09:48:56.442Z,21.00
2022-11-24T09:51:26.386Z,21.00
2022-11-24T09:53:57.184Z,20.98
2022-11-24T09:56:26.964Z,20.95
2022-11-24T09:58:55.296Z,20.94
2022-11-24T10:01:25.394Z,20.91
2022-11-24T10:03:53.164Z,20.90
2022-11-24T10:06:22.986Z,20.89
2022-11-24T10:08:51.406Z,20.86
2022-11-24T10:11:27.001Z,20.85
2022-11-24T10:14:02.669Z,20.86
2022-11-24T10:16:30.184Z,20.83
2022-11-24T10:18:57.707Z,20.83
2022-11-24T10:21:25.054Z,20.80
2022-11-24T10:23:55.070Z,20.82
2022-11-24T10:26:25.445Z,20.80
2022-11-24T10:28:54.685Z,20.82
2022-11-24T10:31:24.976Z,20.79
2022-11-24T10:33:52.365Z,20.83
2022-11-24T10:36:22.382Z,20.84
2022-11-24T10:38:54.173Z,20.82
2022-11-24T10:41:24.664Z,20.83
2022-11-24T10:43:52.521Z,20.83
2022-11-24T10:46:24.418Z,20.83
2022-11-24T10:48:55.982Z,20.85
2022-11-24T10:51:26.266Z,20.86
2022-11-24T10:53:59.820Z,20.91
2022-11-24T10:56:27.033Z,20.95
2022-11-24T10:58:54.020Z,20.97
2022-11-24T11:01:26.698Z,21.00
2022-11-24T11:03:55.708Z,21.03
2022-11-24T11:06:23.122Z,21.06
2022-11-24T11:08:50.568Z,21.08
2022-11-24T11:11:17.930Z,21.10
2022-11-24T11:13:52.362Z,21.12
2022-11-24T11:16:22.422Z,21.13
2022-11-24T11:18:49.877Z,21.15
2022-11-24T11:21:20.375Z,21.16
2022-11-24T11:23:51.997Z,21.18
2022-11-24T11:26:21.374Z,21.19
2022-11-24T11:28:51.518Z,21.20
2022-11-24T11:31:22.418Z,21.20
2022-11-24T11:34:12.108Z,21.22
2022-11-24T11:36:41.893Z,21.22
2022-11-24T11:39:15.998Z,21.22
2022-11-24T11:41:45.746Z,21.23
2022-11-24T11:44:18.564Z,21.20
2022-11-24T11:46:51.744Z,21.19
2022-11-24T11:49:20.878Z,21.21
2022-11-24T11:51:59.929Z,21.20
2022-11-24T11:54:33.732Z,21.18
2022-11-24T11:57:09.333Z,21.18
2022-11-24T11:59:39.462Z,21.18
2022-11-24T12:02:07.976Z,21.18
2022-11-24T12:04:38.304Z,21.17
2022-11-24T12:07:08.361Z,21.18
2022-11-24T12:09:40.023Z,21.20
2022-11-24T12:12:10.008Z,21.18
2022-11-24T12:14:39.317Z,21.15
2022-11-24T12:17:07.447Z,21.16
2022-11-24T12:19:35.060Z,21.15
2022-11-24T12:22:02.582Z,21.12
2022-11-24T12:24:38.159Z,21.12
2022-11-24T12:27:06.703Z,21.08
2022-11-24T12:29:35.299Z,21.05
2022-11-24T12:32:02.944Z,21.05
2022-11-24T12:34:35.918Z,21.00
2022-11-24T12:37:04.177Z,20.97
2022-11-24T12:39:36.099Z,20.95
2022-11-24T12:42:05.120Z,20.92
2022-11-24T12:44:35.601Z,20.90
2022-11-24T12:47:05.644Z,20.89
2022-11-24T12:49:35.850Z,20.86
2022-11-24T12:52:09.501Z,20.86
2022-11-24T12:54:39.891Z,20.84
2022-11-24T12:57:09.804Z,20.85
2022-11-24T12:59:39.968Z,20.85
2022-11-24T13:02:10.407Z,20.86
2022-11-24T13:04:38.016Z,20.85
2022-11-24T13:07:10.570Z,20.88
2022-11-24T13:09:39.485Z,20.93
2022-11-24T13:12:13.912Z,20.91
2022-11-24T13:14:44.141Z,20.92
2022-11-24T13:17:29.745Z,20.96
2022-11-24T13:20:02.106Z,20.99
2022-11-24T13:22:29.660Z,21.01
2022-11-24T13:25:05.061Z,21.03
2022-11-24T13:27:40.450Z,21.04
2022-11-24T13:30:16.767Z,21.07
2022-11-24T13:32:44.262Z,21.08
2022-11-24T13:35:14.580Z,21.10
2022-11-24T13:37:41.985Z,21.11
2022-11-24T13:40:12.222Z,21.12
2022-11-24T13:42:44.435Z,21.13
2022-11-24T13:45:31.300Z,21.15
2022-11-24T13:47:58.483Z,21.15
2022-11-24T13:50:45.685Z,21.17
2022-11-24T13:53:16.468Z,21.17
2022-11-24T13:55:53.150Z,21.15
2022-11-24T13:58:23.280Z,21.15
2022-11-24T14:00:58.137Z,21.15
2022-11-24T14:03:25.992Z,21.16
2022-11-24T14:09:02.521Z,21.15
2022-11-24T14:11:29.927Z,21.13
2022-11-24T14:13:57.125Z,21.15
2022-11-24T14:16:24.723Z,21.17
2022-11-24T14:18:52.773Z,21.14
2022-11-24T14:21:21.278Z,21.12
2022-11-24T14:23:51.586Z,21.12
2022-11-24T14:26:21.993Z,21.09
2022-11-24T14:28:49.726Z,21.10
2022-11-24T14:31:21.671Z,21.08
2022-11-24T14:33:49.088Z,21.04
2022-11-24T14:36:18.706Z,21.05
2022-11-24T14:38:46.129Z,21.04
2022-11-24T14:41:17.102Z,21.04
2022-11-24T14:43:44.561Z,21.02
2022-11-24T14:46:18.589Z,21.00
2022-11-24T14:48:48.623Z,20.96
2022-11-24T14:51:18.509Z,20.94
2022-11-24T14:53:49.850Z,20.93
2022-11-24T14:56:20.290Z,20.92
2022-11-24T14:58:47.629Z,20.89
2022-11-24T15:01:18.432Z,20.87
2022-11-24T15:03:45.970Z,20.86
2022-11-24T15:06:16.604Z,20.86
2022-11-24T15:08:46.942Z,20.86
2022-11-24T15:11:14.469Z,20.81
2022-11-24T15:13:52.248Z,20.81
2022-11-24T15:16:21.542Z,20.80
2022-11-24T15:18:50.368Z,20.79
2022-11-24T15:21:31.229Z,20.78
2022-11-24T15:24:01.634Z,20.79
2022-11-24T15:26:35.498Z,20.81
2022-11-24T15:29:04.290Z,20.84
2022-11-24T15:31:32.864Z,20.81
2022-11-24T15:34:00.144Z,20.77
2022-11-24T15:36:27.756Z,20.75
2022-11-24T15:38:55.011Z,20.74
2022-11-24T15:41:23.015Z,20.73
2022-11-24T15:43:50.454Z,20.71
2022-11-24T15:46:18.160Z,20.68
2022-11-24T15:48:48.364Z,20.66
2022-11-24T15:51:16.565Z,20.66
2022-11-24T15:53:45.809Z,20.65
2022-11-24T15:56:16.304Z,20.63
2022-11-24T15:58:43.663Z,20.60
2022-11-24T16:01:11.556Z,20.58
2022-11-24T16:03:46.804Z,20.55
2022-11-24T16:06:22.193Z,20.54
2022-11-24T16:08:51.629Z,20.52
2022-11-24T16:11:19.628Z,20.50
2022-11-24T16:13:52.284Z,20.48
2022-11-24T16:16:22.005Z,20.46
2022-11-24T16:18:50.149Z,20.46
2022-11-24T16:21:17.961Z,20.44
2022-11-24T16:23:46.569Z,20.41
2022-11-24T16:26:16.213Z,20.41
2022-11-24T16:28:46.081Z,20.38
2022-11-24T16:31:16.669Z,20.41
2022-11-24T16:33:45.649Z,20.41
2022-11-24T16:36:14.391Z,20.40
2022-11-24T16:38:42.858Z,20.38
2022-11-24T16:41:11.518Z,20.40
2022-11-24T16:43:40.146Z,20.41
2022-11-24T16:46:17.833Z,20.45
2022-11-24T16:48:47.259Z,20.46
2022-11-24T16:51:15.283Z,20.49
2022-11-24T16:53:42.969Z,20.52
2022-11-24T16:56:11.841Z,20.55
2022-11-24T16:58:40.074Z,20.58
2022-11-24T17:01:09.304Z,20.62
2022-11-24T17:03:38.621Z,20.64
2022-11-24T17:06:07.679Z,20.67
2022-11-24T17:08:38.311Z,20.70
2022-11-24T17:11:07.074Z,20.74
2022-11-24T17:13:35.083Z,20.76
2022-11-24T17:16:24.431Z,20.80
2022-11-24T17:18:52.819Z,20.82
2022-11-24T17:21:23.139Z,20.84
2022-11-24T17:23:54.196Z,20.88
2022-11-24T17:26:23.300Z,20.91
2022-11-24T17:28:51.544Z,20.93
2022-11-24T17:31:23.389Z,20.96
2022-11-24T17:33:52.635Z,20.98
2022-11-24T17:36:20.906Z,21.00
2022-11-24T17:38:50.619Z,21.01
2022-11-24T17:41:20.066Z,21.03
2022-11-24T17:43:51.109Z,21.05
2022-11-24T17:46:33.903Z,21.07
2022-11-24T17:49:01.623Z,21.08
2022-11-24T17:51:29.921Z,21.09
2022-11-24T17:54:01.219Z,21.11
2022-11-24T17:56:34.591Z,21.11
2022-11-24T17:59:05.928Z,21.12
2022-11-24T18:01:35.661Z,21.12
2022-11-24T18:04:03.834Z,21.12
2022-11-24T18:06:31.798Z,21.12
2022-11-24T18:09:03.054Z,21.13
2022-11-24T18:11:32.287Z,21.13
2022-11-24T18:14:02.394Z,21.13
2022-11-24T18:16:32.329Z,21.11
2022-11-24T18:19:11.572Z,21.09
2022-11-24T18:21:40.730Z,21.04
2022-11-24T18:24:09.600Z,21.03
2022-11-24T18:26:37.504Z,20.99
2022-11-24T18:29:05.030Z,20.97
2022-11-24T18:31:34.745Z,20.95
2022-11-24T18:34:02.871Z,20.93
2022-11-24T18:36:52.456Z,20.94
2022-11-24T18:39:20.176Z,20.91
2022-11-24T18:41:47.794Z,20.91
2022-11-24T18:44:15.366Z,20.90
2022-11-24T18:46:42.864Z,20.90
2022-11-24T18:49:10.538Z,20.88
2022-11-24T18:51:38.032Z,20.89
2022-11-24T18:54:05.914Z,20.88
2022-11-24T18:56:33.346Z,20.88
2022-11-24T18:59:00.785Z,20.88
2022-11-24T19:01:29.567Z,20.88
2022-11-24T19:03:58.296Z,20.85
2022-11-24T19:06:29.420Z,20.85
2022-11-24T19:08:56.708Z,20.84
2022-11-24T19:11:26.120Z,20.82
2022-11-24T19:13:53.590Z,20.80
2022-11-24T19:16:22.821Z,20.80
2022-11-24T19:18:54.134Z,20.78
2022-11-24T19:21:22.105Z,20.76
2022-11-24T19:23:49.914Z,20.74
2022-11-24T19:26:17.624Z,20.73
2022-11-24T19:28:45.418Z,20.70
2022-11-24T19:31:14.033Z,20.70
2022-11-24T19:33:42.064Z,20.68
2022-11-24T19:36:10.128Z,20.66
2022-11-24T19:38:37.480Z,20.64
2022-11-24T19:41:06.540Z,20.63
2022-11-24T19:43:34.618Z,20.61
2022-11-24T19:46:02.523Z,20.57
2022-11-24T19:48:32.622Z,20.56
2022-11-24T19:51:03.160Z,20.54
2022-11-24T19:53:31.179Z,20.51
2022-11-24T19:56:02.427Z,20.49
2022-11-24T19:58:30.225Z,20.48
2022-11-24T20:00:57.864Z,20.46
2022-11-24T20:03:25.183Z,20.44
2022-11-24T20:05:55.644Z,20.41
2022-11-24T20:08:22.856Z,20.40
2022-11-24T20:10:50.094Z,20.38
2022-11-24T20:13:17.432Z,20.35
2022-11-24T20:15:44.725Z,20.33
2022-11-24T20:18:11.878Z,20.31
2022-11-24T20:20:39.352Z,20.29
2022-11-24T20:23:06.780Z,20.27
2022-11-24T20:25:37.057Z,20.25
2022-11-24T20:28:04.857Z,20.22
2022-11-24T20:30:33.118Z,20.22
2022-11-24T20:33:00.719Z,20.20
2022-11-24T20:35:28.016Z,20.19
2022-11-24T20:37:55.600Z,20.17
2022-11-24T20:40:22.765Z,20.16
2022-11-24T20:42:50.269Z,20.15
2022-11-24T20:45:17.629Z,20.12
2022-11-24T20:47:44.875Z,20.10
2022-11-24T20:50:12.213Z,20.10
2022-11-24T20:52:39.620Z,20.07
2022-11-24T20:55:07.691Z,20.06
2022-11-24T20:57:34.819Z,20.06
2022-11-24T21:00:01.965Z,20.04
2022-11-24T21:02:29.160Z,20.06
2022-11-24T21:04:56.471Z,20.07
2022-11-24T21:07:23.709Z,20.07
2022-11-24T21:09:50.920Z,20.07
2022-11-24T21:12:18.373Z,20.10
2022-11-24T21:14:45.578Z,20.13
2022-11-24T21:17:14.616Z,20.16
2022-11-24T21:19:41.812Z,20.20
2022-11-24T21:22:08.900Z,20.23
2022-11-24T21:24:36.084Z,20.24
2022-11-24T21:27:03.298Z,20.27
2022-11-24T21:29:32.133Z,20.31
2022-11-24T21:31:59.288Z,20.33
2022-11-24T21:34:26.532Z,20.37
2022-11-24T21:36:54.018Z,20.42
2022-11-24T21:39:21.118Z,20.46
2022-11-24T21:41:48.553Z,20.48
2022-11-24T21:44:15.854Z,20.50
2022-11-24T21:46:49.644Z,20.53
2022-11-24T21:49:21.719Z,20.55
2022-11-24T21:51:56.161Z,20.58
2022-11-24T21:54:23.510Z,20.61
2022-11-24T21:56:50.599Z,20.64
2022-11-24T21:59:17.734Z,20.67
2022-11-24T22:02:22.092Z,20.69
2022-11-24T22:04:49.120Z,20.73
2022-11-24T22:07:16.385Z,20.75
2022-11-24T22:09:43.939Z,20.78
2022-11-24T22:12:11.057Z,20.79
2022-11-24T22:14:40.737Z,20.81
2022-11-24T22:17:08.101Z,20.83
2022-11-24T22:19:35.319Z,20.85
2022-11-24T22:22:02.502Z,20.86
2022-11-24T22:24:29.653Z,20.88
2022-11-24T22:26:56.950Z,20.88
2022-11-24T22:29:24.084Z,20.89
2022-11-24T22:31:51.399Z,20.91
2022-11-24T22:34:18.740Z,20.92
2022-11-24T22:36:45.801Z,20.92
2022-11-24T22:39:13.260Z,20.95
2022-11-24T22:41:40.314Z,20.92
2022-11-24T22:44:07.334Z,20.95
2022-11-24T22:46:34.392Z,20.94
2022-11-24T22:49:02.225Z,20.91
2022-11-24T22:51:32.879Z,20.90
2022-11-24T22:54:01.425Z,20.87
2022-11-24T22:56:28.872Z,20.86
2022-11-24T22:58:56.268Z,20.88
2022-11-24T23:01:25.066Z,20.88
2022-11-24T23:03:54.832Z,20.89
2022-11-24T23:06:23.961Z,20.93
2022-11-24T23:08:51.649Z,20.97
2022-11-24T23:11:20.203Z,20.97
2022-11-24T23:13:47.373Z,20.98
2022-11-24T23:16:15.898Z,21.00
2022-11-24T23:18:43.297Z,21.03
2022-11-24T23:21:13.353Z,21.05
2022-11-24T23:23:40.613Z,21.06
2022-11-24T23:26:09.377Z,21.06
2022-11-24T23:28:36.548Z,21.08
2022-11-24T23:31:05.230Z,21.13
2022-11-24T23:33:32.806Z,21.14
2022-11-24T23:36:01.560Z,21.17
2022-11-24T23:38:30.458Z,21.21
2022-11-24T23:40:57.880Z,21.24
2022-11-24T23:43:24.940Z,21.24
2022-11-24T23:45:52.096Z,21.28
2022-11-24T23:48:19.201Z,21.29
2022-11-24T23:50:46.317Z,21.30
2022-11-24T23:53:13.244Z,21.32
2022-11-24T23:55:40.276Z,21.34
2022-11-24T23:58:07.614Z,21.34
